Time;durP1;ratioP1;P1;durP2;ratioP2;P2;SDS_P1;SDS_P2;PMS_P1;PMS_P2;Temp;Humidity;BMP_temperature;BMP_pressure;BME280_temperature;BME280_humidity;BME280_pressure;Samples;Min_cycle;Max_cycle;Signal;HPM_P1;HPM_P2
2022/07/14 00:01:06;;;;;;;2.97;1.50;;;17.70;99.90;;;;;;6224495;23;20019;-80
2022/07/14 00:03:35;;;;;;;1.38;1.13;;;17.70;99.90;;;;;;6188418;23;20028;-80
2022/07/14 00:06:03;;;;;;;1.42;1.33;;;17.70;99.90;;;;;;6188156;23;20020;-80
2022/07/14 00:08:31;;;;;;;1.50;1.40;;;17.70;99.90;;;;;;6213264;23;20023;-80
2022/07/14 00:10:59;;;;;;;12.38;2.05;;;17.60;99.90;;;;;;6163310;23;20020;-80
2022/07/14 00:13:26;;;;;;;1.48;1.40;;;17.50;99.90;;;;;;6214584;23;20777;-80
2022/07/14 00:15:54;;;;;;;1.40;1.30;;;17.50;99.90;;;;;;6213978;23;20020;-80
2022/07/14 00:18:28;;;;;;;1.90;1.50;;;17.50;99.90;;;;;;6248234;23;20024;-80
2022/07/14 00:21:01;;;;;;;2.65;1.40;;;17.60;99.90;;;;;;6223880;23;20072;-80
2022/07/14 00:23:29;;;;;;;3.33;1.08;;;17.60;99.90;;;;;;6213572;23;20028;-80
2022/07/14 00:25:57;;;;;;;2.45;1.15;;;17.50;99.90;;;;;;6213337;23;20463;-81
2022/07/14 00:28:26;;;;;;;1.85;1.75;;;17.60;99.90;;;;;;6189219;23;20012;-80
2022/07/14 00:30:53;;;;;;;1.00;1.00;;;17.60;99.90;;;;;;6213493;23;20024;-80
2022/07/14 00:33:22;;;;;;;0.90;0.90;;;17.70;99.90;;;;;;6214070;23;20016;-80
2022/07/14 00:35:50;;;;;;;1.90;1.48;;;17.80;99.90;;;;;;6214134;23;20020;-80
2022/07/14 00:38:18;;;;;;;1.92;1.73;;;17.80;99.90;;;;;;6188635;23;20024;-80
2022/07/14 00:40:45;;;;;;;1.48;1.38;;;17.70;99.90;;;;;;6250385;23;20019;-80
2022/07/14 00:43:13;;;;;;;1.67;1.58;;;17.70;99.90;;;;;;6218109;23;20039;-80
2022/07/14 00:45:43;;;;;;;1.80;1.70;;;17.80;99.90;;;;;;6214402;23;20490;-80
2022/07/14 00:48:12;;;;;;;3.47;1.85;;;17.80;99.90;;;;;;6188468;23;20039;-80
2022/07/14 00:50:44;;;;;;;1.80;1.48;;;18.00;99.90;;;;;;6213919;23;20023;-80
2022/07/14 00:53:13;;;;;;;1.85;1.75;;;18.00;99.90;;;;;;6188876;23;20451;-80
2022/07/14 00:55:42;;;;;;;2.13;1.58;;;18.10;99.90;;;;;;6187397;23;20020;-80
2022/07/14 00:58:11;;;;;;;2.90;1.45;;;18.00;99.90;;;;;;6213100;23;20016;-80
2022/07/14 01:00:39;;;;;;;1.92;1.83;;;17.80;99.90;;;;;;6224391;23;20035;-80
2022/07/14 01:03:07;;;;;;;7.85;2.47;;;17.70;99.90;;;;;;6194291;23;20026;-80
2022/07/14 01:05:36;;;;;;;1.20;1.20;;;17.60;99.90;;;;;;6238718;23;20024;-80
2022/07/14 01:08:05;;;;;;;1.50;1.40;;;17.60;99.90;;;;;;6215046;23;20047;-80
2022/07/14 01:10:33;;;;;;;3.42;1.63;;;17.50;99.90;;;;;;6213570;23;20031;-80
2022/07/14 01:13:04;;;;;;;6.70;1.70;;;17.40;99.90;;;;;;6223963;23;20016;-80
2022/07/14 01:15:32;;;;;;;;;;;17.40;99.90;;;;;;6214054;23;20035;-80
2022/07/14 01:18:00;;;;;;;2.90;1.35;;;17.30;99.90;;;;;;6187157;23;20319;-80
2022/07/14 01:20:28;;;;;;;1.40;1.17;;;17.30;99.90;;;;;;6225847;23;20012;-80
2022/07/14 01:22:56;;;;;;;1.70;1.60;;;17.30;99.90;;;;;;6215328;23;20024;-80
2022/07/14 01:25:25;;;;;;;3.72;1.48;;;17.10;99.90;;;;;;6215049;23;20020;-80
2022/07/14 01:27:54;;;;;;;2.03;1.83;;;17.10;99.90;;;;;;6213637;23;20027;-79
2022/07/14 01:30:28;;;;;;;1.65;1.55;;;17.00;99.90;;;;;;6185962;23;20353;-80
2022/07/14 03:33:39;;;;;;;2.47;1.55;;;16.30;99.90;;;;;;6051624;23;20021;-86
2022/07/14 04:02:11;;;;;;;1.55;1.45;;;16.70;99.90;;;;;;5155228;23;23917985;-85
2022/07/14 04:05:26;;;;;;;1.17;1.10;;;16.70;99.90;;;;;;6163891;23;20031;-85
2022/07/14 04:08:06;;;;;;;1.63;1.20;;;16.80;99.90;;;;;;6162179;23;20078;-81
2022/07/14 04:15:01;;;;;;;1.38;1.27;;;16.80;99.90;;;;;;6138177;23;20492;-81
2022/07/14 04:18:32;;;;;;;2.55;1.73;;;17.00;99.90;;;;;;6062829;23;20052;-81
2022/07/14 04:22:57;;;;;;;;;;;;;;;;;;;;;
2022/07/14 04:26:03;;;;;;;3.90;2.13;;;17.00;99.90;;;;;;6007277;23;20031;-81
2022/07/14 04:29:37;;;;;;;1.30;1.20;;;16.90;99.90;;;;;;6041688;23;20033;-81
2022/07/14 04:33:07;;;;;;;3.97;1.75;;;16.80;99.90;;;;;;6118487;23;20033;-81
2022/07/14 04:35:49;;;;;;;10.73;2.35;;;16.80;99.90;;;;;;6096495;23;20032;-80
2022/07/14 04:39:00;;;;;;;1.27;1.17;;;16.80;99.90;;;;;;6080806;23;20025;-80
2022/07/14 04:41:36;;;;;;;1.30;1.20;;;16.60;99.90;;;;;;6089280;23;20157;-80
2022/07/14 04:44:18;;;;;;;2.72;1.35;;;16.60;99.90;;;;;;6108814;23;20030;-81
2022/07/14 04:46:56;;;;;;;2.13;1.95;;;16.70;99.90;;;;;;6100779;23;20032;-80
2022/07/14 04:52:15;;;;;;;1.75;1.65;;;16.90;99.90;;;;;;6146765;23;20024;-81
2022/07/14 04:54:59;;;;;;;1.33;1.33;;;17.30;99.90;;;;;;6135676;23;20032;-78
2022/07/14 04:57:27;;;;;;;9.18;1.77;;;17.70;99.90;;;;;;6218460;23;20013;-78
2022/07/14 05:00:09;;;;;;;1.35;1.30;;;18.00;99.90;;;;;;6156146;23;20021;-78
2022/07/14 05:02:37;;;;;;;1.33;1.33;;;18.10;99.90;;;;;;6208070;23;20021;-77
2022/07/14 05:05:06;;;;;;;2.08;1.38;;;18.30;99.90;;;;;;6192419;23;20027;-78
2022/07/14 05:07:34;;;;;;;11.02;1.85;;;18.60;99.90;;;;;;6183096;23;20475;-77
2022/07/14 05:10:06;;;;;;;1.73;1.42;;;19.00;99.90;;;;;;6190126;23;20017;-78
2022/07/14 05:12:35;;;;;;;1.25;1.15;;;19.40;99.90;;;;;;6190924;23;20684;-77
2022/07/14 05:15:06;;;;;;;2.35;1.55;;;19.60;99.90;;;;;;6212840;23;20024;-78
2022/07/14 05:17:43;;;;;;;1.58;1.40;;;19.80;99.90;;;;;;6181319;23;20599;-78
2022/07/14 05:20:13;;;;;;;1.40;1.30;;;20.00;99.90;;;;;;6180506;23;20036;-78
2022/07/14 05:22:43;;;;;;;2.00;1.35;;;20.10;99.90;;;;;;6188983;23;20809;-78
2022/07/14 05:25:13;;;;;;;1.60;1.42;;;20.20;99.90;;;;;;6192049;23;20198;-79
2022/07/14 05:27:42;;;;;;;1.15;1.05;;;20.20;99.90;;;;;;6160602;23;20813;-79
2022/07/14 05:30:19;;;;;;;5.40;1.23;;;20.10;99.90;;;;;;6189756;23;20028;-78
2022/07/14 05:32:48;;;;;;;3.38;1.05;;;20.00;99.90;;;;;;6193471;23;20020;-78
2022/07/14 05:35:15;;;;;;;1.40;1.20;;;19.90;99.90;;;;;;6157412;23;20027;-79
2022/07/14 05:37:43;;;;;;;3.10;1.65;;;19.80;99.90;;;;;;6193781;23;20070;-79
2022/07/14 05:40:11;;;;;;;1.05;1.05;;;19.80;99.90;;;;;;6207182;23;20048;-78
2022/07/14 05:42:39;;;;;;;0.80;0.80;;;19.80;99.90;;;;;;6158230;23;20017;-78
2022/07/14 05:45:08;;;;;;;1.23;1.13;;;19.90;99.90;;;;;;6168353;23;20013;-78
2022/07/14 05:47:35;;;;;;;1.35;1.25;;;19.90;99.90;;;;;;6158417;23;20032;-78
2022/07/14 05:50:04;;;;;;;2.85;1.25;;;19.90;99.90;;;;;;6191238;23;20215;-78
2022/07/14 05:52:34;;;;;;;1.80;1.70;;;20.00;99.90;;;;;;6183343;23;20020;-79
2022/07/14 05:55:02;;;;;;;1.60;1.50;;;20.30;99.90;;;;;;6182047;23;20032;-79
2022/07/14 05:57:31;;;;;;;1.75;1.27;;;20.60;99.90;;;;;;6169209;23;20336;-79
2022/07/14 06:00:09;;;;;;;2.08;1.30;;;21.00;99.90;;;;;;6183174;23;20024;-79
2022/07/14 06:02:45;;;;;;;2.00;1.33;;;21.10;99.90;;;;;;6135462;23;20464;-79
2022/07/14 06:05:18;;;;;;;2.08;1.45;;;21.20;99.90;;;;;;6219703;23;20020;-79
2022/07/14 06:07:47;;;;;;;4.75;1.70;;;21.20;99.90;;;;;;6159862;23;20487;-79
2022/07/14 06:10:17;;;;;;;2.13;2.03;;;21.20;99.90;;;;;;6168712;23;20479;-79
2022/07/14 06:12:48;;;;;;;4.63;1.63;;;21.20;99.90;;;;;;6160121;23;20020;-79
2022/07/14 06:15:16;;;;;;;1.27;1.17;;;21.30;99.90;;;;;;6189301;23;20035;-79
2022/07/14 06:17:44;;;;;;;3.45;1.23;;;21.30;99.90;;;;;;6183720;23;20034;-80
2022/07/14 06:20:12;;;;;;;2.50;1.75;;;21.40;99.90;;;;;;6184831;23;20031;-80
2022/07/14 06:22:42;;;;;;;;;;;21.60;99.90;;;;;;6192402;23;20085;-80
2022/07/14 06:25:11;;;;;;;4.32;2.03;;;21.70;99.90;;;;;;6170083;23;19950;-80
2022/07/14 06:27:45;;;;;;;1.58;1.48;;;21.80;99.90;;;;;;6134808;23;20113;-82
2022/07/14 06:30:22;;;;;;;1.73;1.63;;;22.00;99.90;;;;;;6137235;23;20017;-81
2022/07/14 06:32:50;;;;;;;1.35;1.25;;;22.20;99.90;;;;;;6185170;23;20039;-81
2022/07/14 06:35:20;;;;;;;1.65;1.40;;;22.30;99.90;;;;;;6159589;23;20053;-81
2022/07/14 06:37:58;;;;;;;1.80;1.33;;;22.40;99.90;;;;;;6195682;23;20016;-80
2022/07/14 06:40:38;;;;;;;1.30;1.20;;;22.50;99.90;;;;;;6112932;23;20032;-81
2022/07/14 06:43:07;;;;;;;;;;;22.70;99.90;;;;;;6160789;23;20344;-81
2022/07/14 06:45:42;;;;;;;1.00;0.90;;;22.80;99.90;;;;;;6137852;23;19919;-81
2022/07/14 06:48:10;;;;;;;2.03;1.20;;;22.80;99.90;;;;;;6159333;23;20471;-81
2022/07/14 06:51:12;;;;;;;6.18;1.33;;;23.00;99.90;;;;;;6159943;23;20326;-88
2022/07/14 06:54:13;;;;;;;1.38;1.27;;;23.10;99.90;;;;;;6161141;23;20016;-88
2022/07/14 07:02:23;;;;;;;8.50;1.50;;;23.50;99.90;;;;;;6156307;23;20340;-81
2022/07/14 07:09:58;;;;;;;1.48;1.05;;;24.00;99.90;;;;;;6148105;23;20018;-85
2022/07/14 07:12:26;;;;;;;3.63;3.30;;;24.00;99.90;;;;;;6122284;23;20457;-85
2022/07/14 07:14:54;;;;;;;1.90;1.55;;;24.00;99.90;;;;;;6152151;23;20128;-85
2022/07/14 07:17:22;;;;;;;1.98;1.35;;;24.00;99.90;;;;;;6166304;23;20017;-85
2022/07/14 07:19:50;;;;;;;1.52;1.38;;;24.00;99.90;;;;;;6133751;23;20024;-85
2022/07/14 07:22:42;;;;;;;2.25;1.65;;;24.00;99.90;;;;;;6117042;23;20036;-81
2022/07/14 07:25:53;;;;;;;6.03;2.22;;;24.10;99.90;;;;;;6189315;23;20491;-81
2022/07/14 07:29:53;;;;;;;4.97;1.77;;;24.20;99.90;;;;;;6097847;23;20356;-82
2022/07/14 07:33:18;;;;;;;2.60;1.30;;;24.50;99.90;;;;;;6152308;23;20673;-81
2022/07/14 07:36:31;;;;;;;1.33;0.90;;;24.70;99.90;;;;;;6012263;23;20030;-81
2022/07/14 07:41:03;;;;;;;1.88;1.73;;;24.60;99.90;;;;;;5995771;23;20042;-81
2022/07/14 07:44:57;;;;;;;;;;;;;;;;;;;;;
2022/07/14 07:49:29;;;;;;;4.28;1.33;;;25.00;99.90;;;;;;5803654;24;20356;-81
2022/07/14 07:53:31;;;;;;;1.05;0.90;;;25.20;99.90;;;;;;5824361;24;20178;-82
2022/07/14 07:56:36;;;;;;;0.98;0.60;;;25.60;99.90;;;;;;5901217;24;20020;-82
2022/07/14 08:00:34;;;;;;;0.80;0.80;;;25.90;99.80;;;;;;5984128;23;20019;-82
2022/07/14 08:07:34;;;;;;;2.15;0.93;;;26.30;99.70;;;;;;6030839;23;20027;-81
2022/07/14 08:11:09;;;;;;;2.35;0.85;;;26.30;99.90;;;;;;6102511;23;20052;-81
2022/07/14 08:13:55;;;;;;;1.05;1.00;;;26.40;98.90;;;;;;6154627;23;20017;-82
2022/07/14 08:16:40;;;;;;;;;;;26.50;99.20;;;;;;6179407;23;20353;-82
2022/07/14 08:19:17;;;;;;;3.15;1.40;;;26.50;98.20;;;;;;6178528;23;19927;-83
2022/07/14 08:22:40;;;;;;;1.45;0.85;;;26.40;98.00;;;;;;6065172;23;20041;-82
2022/07/14 08:25:52;;;;;;;1.15;1.05;;;26.50;97.90;;;;;;6075245;23;20551;-82
2022/07/14 08:29:27;;;;;;;0.95;0.95;;;26.80;99.30;;;;;;5961902;23;20032;-87
2022/07/14 08:32:02;;;;;;;15.23;1.73;;;26.60;96.90;;;;;;6032708;23;20064;-86
2022/07/14 08:35:10;;;;;;;1.25;1.15;;;26.60;98.40;;;;;;6007213;23;20031;-85
2022/07/14 08:40:17;;;;;;;0.80;0.80;;;26.70;96.10;;;;;;5950940;23;20463;-85
2022/07/14 08:44:04;;;;;;;2.30;1.10;;;26.70;96.50;;;;;;6068908;23;20045;-85
2022/07/14 08:47:53;;;;;;;3.92;1.08;;;26.80;97.00;;;;;;6053709;23;20030;-85
2022/07/14 08:51:28;;;;;;;1.38;1.27;;;27.00;97.10;;;;;;5942103;23;20039;-85
2022/07/14 08:55:10;;;;;;;0.90;0.90;;;27.20;98.10;;;;;;5917797;24;20028;-84
2022/07/14 08:58:35;;;;;;;2.65;1.08;;;27.30;98.00;;;;;;5951336;24;20359;-85
2022/07/14 09:02:55;;;;;;;55.65;4.20;;;27.40;97.90;;;;;;5980272;23;20363;-84
2022/07/14 09:06:10;;;;;;;0.90;0.75;;;27.50;98.70;;;;;;6026427;23;20054;-86
2022/07/14 09:14:16;;;;;;;1.20;1.10;;;27.30;94.30;;;;;;5893047;24;20030;-85
2022/07/14 09:18:32;;;;;;;3.92;1.42;;;27.30;97.00;;;;;;5888095;24;20040;-85
2022/07/14 09:22:18;;;;;;;3.10;1.48;;;27.40;96.00;;;;;;6037422;23;20185;-85
2022/07/14 09:26:33;;;;;;;0.88;0.88;;;27.50;96.30;;;;;;6168941;23;20040;-84
2022/07/14 09:30:19;;;;;;;8.18;1.77;;;27.60;96.80;;;;;;6118372;23;20029;-85
2022/07/14 09:34:12;;;;;;;1.52;1.00;;;27.70;98.50;;;;;;6132849;23;20036;-84
2022/07/14 09:38:22;;;;;;;1.10;1.02;;;27.80;95.90;;;;;;6136879;23;20005;-85
2022/07/14 09:42:38;;;;;;;3.00;0.90;;;27.90;97.50;;;;;;6148051;23;20013;-85
2022/07/14 09:46:12;;;;;;;3.45;1.55;;;28.00;95.80;;;;;;6033179;23;20036;-84
2022/07/14 09:48:40;;;;;;;1.38;1.27;;;28.00;95.80;;;;;;5965499;23;20031;-85
2022/07/14 09:52:37;;;;;;;;;;;;;;;;;;;;;
2022/07/14 09:55:44;;;;;;;1.23;1.13;;;28.10;96.80;;;;;;6060978;23;20041;-84
2022/07/14 09:59:01;;;;;;;1.35;1.25;;;28.20;95.60;;;;;;5941986;24;20761;-84
2022/07/14 10:08:34;;;;;;;0.95;0.95;;;28.40;95.10;;;;;;5949332;23;20020;-84
2022/07/14 10:11:06;;;;;;;4.85;1.38;;;28.50;94.30;;;;;;6076405;23;20030;-85
2022/07/14 10:14:32;;;;;;;2.08;1.52;;;28.50;94.00;;;;;;6028672;23;20022;-84
2022/07/14 10:17:19;;;;;;;1.65;0.98;;;28.60;93.40;;;;;;6072063;23;20029;-85
2022/07/14 10:20:09;;;;;;;2.80;1.08;;;28.60;93.30;;;;;;6094517;23;20041;-85
2022/07/14 10:23:08;;;;;;;1.30;1.20;;;28.60;94.10;;;;;;6058717;23;20029;-85
2022/07/14 10:27:14;;;;;;;0.77;0.70;;;28.50;96.00;;;;;;6080187;23;20026;-83
2022/07/14 10:29:51;;;;;;;5.25;0.90;;;28.60;92.20;;;;;;6061226;23;20022;-85
2022/07/14 10:32:27;;;;;;;0.88;0.82;;;28.60;92.90;;;;;;6118961;23;20048;-85
2022/07/14 10:36:15;;;;;;;1.10;1.00;;;28.50;93.30;;;;;;6101476;23;20388;-84
2022/07/14 10:39:34;;;;;;;3.55;1.33;;;28.60;94.40;;;;;;6124771;23;20662;-85
2022/07/14 10:42:51;;;;;;;5.10;1.30;;;28.70;92.50;;;;;;6102155;23;20638;-83
2022/07/14 10:45:51;;;;;;;1.20;1.10;;;28.90;92.80;;;;;;6098808;23;20022;-86
2022/07/14 10:48:31;;;;;;;0.95;0.90;;;28.90;94.70;;;;;;6150704;23;20610;-84
2022/07/14 10:51:14;;;;;;;1.43;1.27;;;28.80;94.60;;;;;;6149855;23;20032;-83
2022/07/14 10:54:06;;;;;;;1.48;1.25;;;28.70;90.50;;;;;;6125900;23;20751;-82
2022/07/14 10:57:17;;;;;;;2.70;1.10;;;28.90;92.80;;;;;;6139987;23;20026;-83
2022/07/14 10:59:49;;;;;;;0.90;0.90;;;29.10;93.00;;;;;;6153147;23;20029;-82
2022/07/14 11:02:21;;;;;;;1.13;0.93;;;29.10;90.20;;;;;;6169631;23;20021;-83
2022/07/14 11:05:02;;;;;;;0.97;0.97;;;29.10;91.00;;;;;;6166279;23;20455;-84
2022/07/14 11:07:38;;;;;;;0.70;0.70;;;29.20;90.80;;;;;;6154192;23;20580;-83
2022/07/14 11:10:19;;;;;;;0.90;0.90;;;29.30;89.70;;;;;;6190107;23;20017;-83
2022/07/14 11:13:05;;;;;;;0.90;0.88;;;29.30;91.10;;;;;;6191772;23;20021;-84
2022/07/14 11:15:50;;;;;;;3.88;1.20;;;29.30;88.80;;;;;;6154897;23;20032;-83
2022/07/14 11:18:18;;;;;;;0.75;0.75;;;29.40;83.10;;;;;;6189272;23;20021;-82
2022/07/14 11:20:51;;;;;;;2.42;1.38;;;29.50;90.40;;;;;;6165114;23;20017;-83
2022/07/14 11:23:21;;;;;;;0.85;0.75;;;29.50;88.10;;;;;;6154316;23;20025;-83
2022/07/14 11:25:51;;;;;;;2.00;1.30;;;29.60;90.00;;;;;;6189895;23;20348;-81
2022/07/14 11:28:31;;;;;;;4.55;1.60;;;29.60;87.30;;;;;;6179504;23;20048;-80
2022/07/14 11:31:14;;;;;;;1.05;1.05;;;29.60;85.50;;;;;;6186315;23;20344;-81
2022/07/14 11:37:04;;;;;;;11.05;1.27;;;29.70;87.30;;;;;;6166445;23;20033;-82
2022/07/14 11:39:51;;;;;;;1.33;1.23;;;29.70;84.60;;;;;;6182323;23;20612;-83
2022/07/14 11:42:19;;;;;;;1.58;1.13;;;29.70;85.90;;;;;;6187778;23;20032;-83
2022/07/14 11:44:49;;;;;;;7.72;1.42;;;29.70;89.40;;;;;;6190278;23;20017;-84
2022/07/14 11:47:18;;;;;;;1.00;0.85;;;29.80;87.70;;;;;;6159266;23;20758;-84
2022/07/14 11:49:56;;;;;;;0.90;0.90;;;29.70;79.10;;;;;;6191522;23;20448;-85
2022/07/14 11:52:39;;;;;;;2.65;0.90;;;29.50;84.80;;;;;;6137929;23;20033;-84
2022/07/14 11:55:10;;;;;;;1.48;1.15;;;29.20;77.60;;;;;;6179038;23;20021;-85
2022/07/14 11:57:38;;;;;;;2.05;1.30;;;29.10;78.80;;;;;;6189550;23;20017;-83
2022/07/14 12:00:09;;;;;;;1.42;1.08;;;29.20;79.30;;;;;;6129617;23;20032;-84
2022/07/14 12:02:55;;;;;;;2.13;0.82;;;29.50;83.40;;;;;;6129760;23;20193;-85
2022/07/14 12:05:24;;;;;;;4.38;1.23;;;29.70;90.90;;;;;;6130162;23;20475;-84
2022/07/14 12:07:53;;;;;;;2.37;1.20;;;29.80;84.30;;;;;;6155988;23;20036;-84
2022/07/14 12:10:54;;;;;;;2.75;1.17;;;29.90;83.50;;;;;;6189041;23;20025;-85
2022/07/14 12:13:21;;;;;;;1.55;1.08;;;29.90;79.60;;;;;;6139716;23;20017;-84
2022/07/14 12:15:49;;;;;;;1.50;1.00;;;29.80;74.60;;;;;;6154399;23;20021;-86
2022/07/14 12:18:17;;;;;;;6.82;1.50;;;29.90;75.40;;;;;;6154201;23;20013;-85
2022/07/14 12:20:47;;;;;;;3.17;1.20;;;29.80;70.40;;;;;;6154925;23;20569;-87
2022/07/14 12:23:16;;;;;;;1.30;1.20;;;29.90;80.00;;;;;;6185436;23;20021;-86
2022/07/14 12:25:46;;;;;;;4.47;1.20;;;29.90;75.00;;;;;;6190536;23;20020;-81
2022/07/14 12:28:21;;;;;;;3.75;0.93;;;29.90;84.30;;;;;;6181183;23;20338;-83
2022/07/14 12:30:51;;;;;;;5.13;1.65;;;30.00;74.90;;;;;;6184878;23;20025;-85
2022/07/14 12:33:21;;;;;;;;;;;29.90;74.80;;;;;;6155664;23;20352;-84
2022/07/14 12:35:52;;;;;;;3.17;1.30;;;30.00;77.30;;;;;;6155391;23;19925;-87
2022/07/14 12:38:21;;;;;;;0.60;0.60;;;30.20;78.20;;;;;;6152626;23;20028;-84
2022/07/14 12:40:57;;;;;;;3.17;1.02;;;30.20;69.60;;;;;;6153733;23;20021;-83
2022/07/14 12:43:37;;;;;;;16.40;1.60;;;30.20;75.40;;;;;;6183476;23;20338;-88
2022/07/14 12:46:07;;;;;;;1.20;1.10;;;30.20;71.60;;;;;;6163346;23;20524;-84
2022/07/14 12:48:49;;;;;;;1.27;1.13;;;30.10;72.70;;;;;;6163844;23;20013;-83
2022/07/14 12:51:23;;;;;;;0.60;0.60;;;30.30;76.10;;;;;;6129604;23;20028;-84
2022/07/14 12:54:11;;;;;;;0.80;0.80;;;30.30;68.70;;;;;;6191182;23;20024;-82
2022/07/14 12:56:53;;;;;;;7.55;1.13;;;30.20;72.20;;;;;;6117832;23;20055;-82
2022/07/14 12:59:31;;;;;;;1.33;1.23;;;30.20;73.40;;;;;;6182691;23;20033;-83
2022/07/14 13:02:01;;;;;;;1.48;1.38;;;30.40;78.60;;;;;;6160827;23;20017;-82
2022/07/14 13:04:34;;;;;;;1.30;1.00;;;30.50;79.10;;;;;;6179851;23;20021;-82
2022/07/14 13:07:14;;;;;;;6.47;1.27;;;30.50;85.70;;;;;;6154126;23;20021;-84
2022/07/14 13:10:05;;;;;;;1.23;1.13;;;30.60;71.10;;;;;;6129782;23;20024;-85
2022/07/14 13:12:34;;;;;;;3.38;1.13;;;30.60;75.40;;;;;;6105223;23;20033;-83
2022/07/14 13:15:24;;;;;;;0.80;0.80;;;30.60;74.80;;;;;;6154605;23;20033;-82
2022/07/14 13:17:54;;;;;;;0.80;0.70;;;30.70;74.00;;;;;;6181456;23;20024;-81
2022/07/14 13:20:47;;;;;;;3.45;1.00;;;30.60;70.20;;;;;;6155301;23;20464;-83
2022/07/14 13:23:22;;;;;;;0.77;0.75;;;30.60;77.00;;;;;;6187263;23;20457;-83
2022/07/14 13:26:13;;;;;;;8.13;1.25;;;30.70;81.70;;;;;;6156464;23;20778;-83
2022/07/14 13:28:54;;;;;;;4.80;1.10;;;30.80;73.30;;;;;;6117879;23;20032;-83
2022/07/14 13:31:24;;;;;;;1.23;0.98;;;30.80;73.40;;;;;;6156364;23;20251;-86
2022/07/14 13:33:58;;;;;;;0.70;0.70;;;30.90;70.90;;;;;;6154755;23;20017;-83
2022/07/14 13:36:26;;;;;;;0.70;0.70;;;31.00;76.90;;;;;;6155701;23;20032;-83
2022/07/14 13:38:55;;;;;;;22.40;1.73;;;30.90;78.00;;;;;;6156015;23;20032;-83
2022/07/14 13:41:24;;;;;;;8.20;1.27;;;31.00;77.60;;;;;;6156559;23;20013;-82
2022/07/14 13:43:56;;;;;;;0.85;0.80;;;31.00;72.70;;;;;;6154108;23;20025;-81
2022/07/14 13:46:24;;;;;;;1.58;0.88;;;31.00;75.20;;;;;;6163907;23;20025;-84
2022/07/14 13:48:52;;;;;;;3.45;1.13;;;31.00;73.30;;;;;;6191029;23;20024;-83
2022/07/14 13:54:06;;;;;;;11.95;1.52;;;31.00;74.20;;;;;;6154837;23;20345;-82
2022/07/14 13:56:34;;;;;;;2.88;1.27;;;31.00;65.20;;;;;;6156868;23;20013;-84
2022/07/14 13:59:04;;;;;;;1.77;1.17;;;31.10;63.30;;;;;;6186683;23;20495;-80
2022/07/14 14:01:32;;;;;;;1.13;0.88;;;31.10;69.80;;;;;;6155652;23;20013;-83
2022/07/14 14:04:01;;;;;;;13.32;1.50;;;31.00;71.00;;;;;;6183340;23;20360;-82
2022/07/14 14:06:50;;;;;;;;;;;31.00;75.20;;;;;;6154411;23;20025;-89
2022/07/14 14:09:18;;;;;;;2.22;1.25;;;31.00;65.00;;;;;;6130728;23;19920;-83
2022/07/14 14:11:49;;;;;;;4.22;1.17;;;31.10;73.00;;;;;;6181155;23;20033;-84
2022/07/14 14:14:18;;;;;;;9.63;1.30;;;31.20;67.10;;;;;;6188007;23;20752;-85
2022/07/14 14:16:46;;;;;;;0.80;0.70;;;31.20;64.60;;;;;;6166046;23;20333;-87
2022/07/14 14:19:18;;;;;;;1.27;1.13;;;31.40;64.10;;;;;;6160648;23;20040;-81
2022/07/14 14:21:51;;;;;;;3.08;1.10;;;31.30;71.00;;;;;;6179652;23;20025;-82
2022/07/14 14:24:20;;;;;;;3.78;1.10;;;31.20;72.40;;;;;;6154509;23;20032;-82
2022/07/14 14:26:50;;;;;;;11.40;2.20;;;31.20;66.70;;;;;;6159928;23;20365;-86
2022/07/14 14:29:21;;;;;;;8.13;1.23;;;31.30;64.50;;;;;;6192166;23;20020;-87
2022/07/14 14:31:49;;;;;;;3.97;1.48;;;31.40;63.80;;;;;;6155549;23;20036;-84
2022/07/14 14:34:17;;;;;;;0.82;0.82;;;31.30;63.20;;;;;;6164108;23;20721;-87
2022/07/14 14:36:45;;;;;;;4.63;1.15;;;31.00;62.40;;;;;;6132108;23;20028;-84
2022/07/14 14:39:12;;;;;;;5.55;1.27;;;31.20;66.50;;;;;;6184733;23;20472;-87
2022/07/14 14:41:40;;;;;;;23.67;2.13;;;31.20;64.10;;;;;;6190560;23;20791;-87
2022/07/14 14:44:08;;;;;;;2.85;1.00;;;31.20;63.50;;;;;;6156032;23;20021;-84
2022/07/14 14:46:36;;;;;;;0.80;0.80;;;31.30;63.40;;;;;;6187555;23;20348;-85
2022/07/14 14:49:04;;;;;;;1.27;1.17;;;31.40;64.10;;;;;;6130769;23;20040;-86
2022/07/14 14:51:31;;;;;;;5.45;1.40;;;31.10;64.80;;;;;;6130114;23;20025;-87
2022/07/14 14:54:00;;;;;;;21.98;1.45;;;30.80;66.00;;;;;;6129586;23;20052;-84
2022/07/14 14:56:28;;;;;;;1.92;1.10;;;31.10;65.30;;;;;;6154889;23;20021;-84
2022/07/14 14:58:56;;;;;;;4.60;1.38;;;31.20;66.50;;;;;;6154429;23;20040;-84
2022/07/14 15:01:24;;;;;;;2.40;1.10;;;31.10;62.20;;;;;;6155054;23;20479;-85
2022/07/14 15:03:52;;;;;;;6.32;1.00;;;31.10;62.10;;;;;;6129983;23;20029;-82
2022/07/14 15:06:19;;;;;;;7.68;1.60;;;30.90;70.10;;;;;;6188822;23;20025;-82
2022/07/14 15:08:47;;;;;;;3.95;1.35;;;30.80;68.60;;;;;;6155283;23;20021;-84
2022/07/14 15:11:15;;;;;;;1.00;0.90;;;30.80;64.50;;;;;;6159146;23;20033;-81
2022/07/14 15:13:43;;;;;;;2.03;0.93;;;30.70;68.90;;;;;;6155444;23;20020;-85
2022/07/14 15:16:11;;;;;;;9.25;1.23;;;30.40;62.10;;;;;;6154826;23;20032;-85
2022/07/14 15:18:39;;;;;;;2.22;0.98;;;30.60;62.80;;;;;;6130224;23;20028;-84
2022/07/14 15:21:07;;;;;;;4.43;1.65;;;30.90;66.70;;;;;;6165060;23;20020;-84
2022/07/14 15:23:35;;;;;;;4.90;1.08;;;31.00;67.50;;;;;;6157612;23;20032;-86
2022/07/14 15:26:03;;;;;;;3.20;1.75;;;31.00;65.60;;;;;;6129978;23;20017;-86
2022/07/14 15:29:03;;;;;;;1.38;0.88;;;30.90;61.50;;;;;;6154765;23;20021;-88
2022/07/14 15:31:31;;;;;;;;;;;30.30;61.60;;;;;;6159055;23;20025;-83
2022/07/14 15:33:59;;;;;;;4.22;0.93;;;30.30;62.80;;;;;;6190164;23;19920;-84
2022/07/14 15:36:34;;;;;;;5.57;1.13;;;30.60;62.00;;;;;;6155059;23;20024;-85
2022/07/14 15:41:48;;;;;;;3.60;2.03;;;30.60;63.50;;;;;;6130062;23;20032;-81
2022/07/14 15:44:16;;;;;;;1.95;1.20;;;30.70;61.00;;;;;;6129956;23;20028;-84
2022/07/14 15:46:44;;;;;;;1.88;1.00;;;30.70;63.30;;;;;;6187753;23;20457;-83
2022/07/14 15:49:12;;;;;;;1.20;1.05;;;30.50;61.10;;;;;;6180233;23;20483;-85
2022/07/14 15:51:40;;;;;;;4.90;1.35;;;30.50;61.00;;;;;;6154893;23;20029;-86
2022/07/14 15:54:09;;;;;;;2.53;1.10;;;30.20;64.40;;;;;;6188838;23;20079;-86
2022/07/14 15:56:36;;;;;;;14.30;1.42;;;30.10;62.90;;;;;;6189558;23;20028;-83
2022/07/14 15:59:06;;;;;;;2.83;1.52;;;30.20;64.00;;;;;;6159988;23;20025;-82
2022/07/14 16:01:37;;;;;;;4.53;1.45;;;30.40;64.90;;;;;;6190487;23;20035;-83
2022/07/14 16:04:13;;;;;;;2.30;1.23;;;30.50;66.10;;;;;;6131061;23;20689;-83
2022/07/14 16:06:41;;;;;;;11.13;1.92;;;30.50;68.20;;;;;;6185195;23;20021;-87
2022/07/14 16:09:09;;;;;;;0.90;0.90;;;30.70;63.70;;;;;;6130913;23;20017;-87
2022/07/14 16:11:37;;;;;;;4.75;1.20;;;30.70;63.40;;;;;;6184260;23;20029;-84
2022/07/14 16:14:04;;;;;;;1.63;0.90;;;30.50;66.00;;;;;;6154466;23;20479;-85
2022/07/14 16:16:35;;;;;;;2.47;1.13;;;30.20;65.30;;;;;;6155370;23;20021;-89
2022/07/14 16:19:04;;;;;;;1.88;1.20;;;29.80;64.20;;;;;;6159501;23;20033;-84
2022/07/14 16:21:43;;;;;;;6.95;1.35;;;29.70;64.20;;;;;;6179840;23;20487;-83
2022/07/14 16:24:21;;;;;;;1.42;1.33;;;30.20;63.40;;;;;;6178879;23;20541;-86
2022/07/14 16:26:50;;;;;;;2.33;1.15;;;30.50;61.50;;;;;;6185019;23;20025;-82
2022/07/14 16:29:19;;;;;;;2.67;1.17;;;30.50;64.80;;;;;;6178767;23;20021;-84
2022/07/14 16:31:47;;;;;;;3.88;1.27;;;30.30;64.00;;;;;;6181745;23;20645;-85
2022/07/14 16:34:15;;;;;;;3.05;1.15;;;29.90;65.10;;;;;;6187718;23;20029;-87
2022/07/14 16:36:46;;;;;;;;;;;29.60;64.00;;;;;;6153686;23;20021;-84
2022/07/14 16:39:13;;;;;;;4.97;1.42;;;29.40;65.10;;;;;;6159381;23;19927;-87
2022/07/14 16:41:42;;;;;;;2.25;1.48;;;29.40;65.50;;;;;;6129435;23;20706;-86
2022/07/14 16:44:09;;;;;;;3.83;1.45;;;29.30;67.80;;;;;;6154780;23;20032;-84
2022/07/14 16:46:37;;;;;;;1.70;1.25;;;29.20;66.30;;;;;;6161652;23;20017;-85
2022/07/14 16:49:05;;;;;;;4.38;2.00;;;29.00;64.40;;;;;;6190774;23;20020;-85
2022/07/14 16:51:33;;;;;;;3.30;1.70;;;28.90;68.10;;;;;;6183894;23;20033;-84
2022/07/14 16:54:01;;;;;;;3.58;1.73;;;28.70;68.40;;;;;;6129316;23;20028;-85
2022/07/14 16:56:30;;;;;;;1.85;1.15;;;28.60;70.00;;;;;;6153447;23;20025;-84
2022/07/14 16:59:01;;;;;;;3.72;1.77;;;28.40;68.90;;;;;;6185673;23;20029;-86
2022/07/14 17:01:30;;;;;;;1.70;1.58;;;28.40;68.30;;;;;;6190035;23;20020;-85
2022/07/14 17:03:59;;;;;;;2.25;1.48;;;28.40;68.70;;;;;;6181573;23;20029;-83
2022/07/14 17:06:28;;;;;;;17.90;2.42;;;28.70;71.90;;;;;;6187880;23;20021;-84
2022/07/14 17:08:56;;;;;;;3.75;2.00;;;29.00;71.60;;;;;;6190305;23;20020;-84
2022/07/14 17:11:25;;;;;;;1.67;1.50;;;29.40;69.80;;;;;;6183829;23;20036;-84
2022/07/14 17:13:53;;;;;;;1.77;1.30;;;29.60;68.90;;;;;;6153961;23;20021;-84
2022/07/14 17:16:22;;;;;;;3.00;1.90;;;29.30;69.30;;;;;;6151920;23;20330;-85
2022/07/14 17:19:10;;;;;;;1.75;1.38;;;29.10;71.10;;;;;;6162206;23;20033;-85
2022/07/14 17:21:39;;;;;;;2.58;1.55;;;29.10;70.10;;;;;;6154096;23;20360;-84
2022/07/14 17:24:07;;;;;;;2.80;1.90;;;28.80;73.30;;;;;;6129296;23;20028;-87